createdAt,value
2016-08-08T00:01:26.390Z,22.4
2016-08-08T00:16:21.834Z,22.4
2016-08-08T00:31:21.820Z,22.4
2016-08-08T00:46:21.871Z,22.4
2016-08-08T01:01:21.838Z,22.3
2016-08-08T01:16:21.850Z,22.3
2016-08-08T01:31:21.861Z,22.3
2016-08-08T01:46:21.915Z,22.2
2016-08-08T02:01:21.878Z,22.1
2016-08-08T02:16:21.888Z,22.1
2016-08-08T02:31:21.901Z,22
2016-08-08T02:46:21.943Z,22.1
2016-08-08T03:01:21.910Z,22.1
2016-08-08T03:16:21.920Z,22.1
2016-08-08T03:31:21.930Z,22.1
2016-08-08T03:46:21.984Z,22
2016-08-08T04:01:30.549Z,22.1
2016-08-08T04:16:25.972Z,22
2016-08-08T04:31:21.967Z,22
2016-08-08T04:46:30.622Z,21.9
2016-08-08T05:01:26.576Z,21.8
2016-08-08T05:16:26.919Z,21.6
2016-08-08T05:31:26.932Z,21.4
2016-08-08T05:46:28.314Z,21.4
2016-08-08T06:01:26.995Z,21.3
2016-08-08T06:16:35.310Z,21.2
2016-08-08T06:31:36.268Z,21.2
2016-08-08T06:46:28.350Z,21.2
2016-08-08T07:01:24.051Z,21.2
2016-08-08T07:16:32.422Z,21.5
2016-08-08T07:31:28.378Z,21.6
2016-08-08T07:46:26.678Z,23
2016-08-08T08:01:22.090Z,22.8
2016-08-08T08:16:26.687Z,22
2016-08-08T08:31:26.775Z,21.7
2016-08-08T09:01:26.709Z,21.1
2016-08-08T09:16:22.119Z,20.9
2016-08-08T09:31:22.121Z,20.6
2016-08-08T09:46:28.486Z,20.7
2016-08-08T10:01:34.983Z,20.8
2016-08-08T10:16:22.151Z,20.8
2016-08-08T10:31:22.159Z,21.2
2016-08-08T10:46:26.763Z,21.4
2016-08-08T11:01:22.320Z,21.5
2016-08-08T11:16:27.202Z,21.6
2016-08-08T11:31:24.289Z,21.6
2016-08-08T11:46:26.849Z,22.1
2016-08-08T12:01:22.251Z,22
2016-08-08T12:16:22.224Z,21.6
2016-08-08T12:31:28.448Z,21.2
2016-08-08T12:46:26.830Z,21
2016-08-08T13:01:26.923Z,20.8
2016-08-08T13:16:28.287Z,20.5
2016-08-08T13:31:28.579Z,20
2016-08-08T13:46:26.868Z,19.8
2016-08-08T14:01:28.536Z,19.9
2016-08-08T14:16:28.501Z,19.9
2016-08-08T14:46:28.524Z,19.2
2016-08-08T15:01:28.554Z,19.2
2016-08-08T15:16:28.410Z,19
2016-08-08T15:31:24.305Z,19
2016-08-08T15:46:28.630Z,19.6
2016-08-08T16:01:24.319Z,20.2
2016-08-08T16:16:27.060Z,20.6
2016-08-08T16:31:24.451Z,20.4
2016-08-08T16:46:24.344Z,20.7
2016-08-08T17:01:26.943Z,20.8
2016-08-08T17:16:29.555Z,20.7
2016-08-08T17:31:30.599Z,20.7
2016-08-08T17:46:35.211Z,20.6
2016-08-08T18:01:27.140Z,20.3
2016-08-08T18:16:28.628Z,20.1
2016-08-08T18:31:27.396Z,19.9
2016-08-08T18:46:28.539Z,19.1
2016-08-08T19:01:22.428Z,18.7
2016-08-08T19:16:22.440Z,18.4
2016-08-08T19:31:22.442Z,18.2
2016-08-08T19:46:28.710Z,18
2016-08-08T20:01:22.460Z,17.8
2016-08-08T20:16:22.461Z,17.7
2016-08-08T20:31:22.461Z,17.6
2016-08-08T20:46:22.476Z,17.4
2016-08-08T21:01:22.533Z,17.4
2016-08-08T21:16:27.140Z,17.2
2016-08-08T22:01:33.003Z,16.9
2016-08-08T22:46:22.538Z,16.5
2016-08-08T23:01:22.551Z,16.4
2016-08-08T23:16:22.601Z,16.4
2016-08-08T23:31:22.570Z,16.3
2016-08-08T23:46:22.568Z,16.2
